createdAt,value
2019-04-16T00:04:27.497Z,47.10
2019-04-16T00:09:24.501Z,47.20
2019-04-16T00:14:21.346Z,47.90
2019-04-16T00:19:12.262Z,48.30
2019-04-16T00:24:05.837Z,46.70
2019-04-16T00:29:01.671Z,46.80
2019-04-16T00:33:48.455Z,46.70
2019-04-16T00:38:40.825Z,47.10
2019-04-16T00:43:30.283Z,47.40
2019-04-16T00:48:21.217Z,47.50
2019-04-16T00:53:12.119Z,47.60
2019-04-16T00:58:03.015Z,48.10
2019-04-16T01:02:53.931Z,48.00
2019-04-16T01:07:44.835Z,47.20
2019-04-16T01:12:35.732Z,46.90
2019-04-16T01:17:27.375Z,47.50
2019-04-16T01:22:19.023Z,47.50
2019-04-16T01:27:09.933Z,47.40
2019-04-16T01:37:25.944Z,47.80
2019-04-16T01:42:16.183Z,48.70
2019-04-16T01:47:07.852Z,47.10
2019-04-16T01:51:58.754Z,47.20
2019-04-16T01:56:49.668Z,47.30
2019-04-16T02:01:43.373Z,47.70
2019-04-16T02:06:31.500Z,47.80
2019-04-16T02:11:22.408Z,48.20
2019-04-16T02:16:14.043Z,48.90
2019-04-16T02:21:09.543Z,48.80
2019-04-16T02:25:56.611Z,48.70
2019-04-16T02:30:47.520Z,47.70
2019-04-16T02:35:38.416Z,47.20
2019-04-16T02:40:29.307Z,47.60
2019-04-16T02:45:23.716Z,48.00
2019-04-16T02:50:11.362Z,48.10
2019-04-16T02:55:10.535Z,48.90
2019-04-16T02:59:58.860Z,48.70
2019-04-16T03:04:51.555Z,49.00
2019-04-16T03:09:42.455Z,49.00
2019-04-16T03:14:33.338Z,48.00
2019-04-16T03:19:24.243Z,47.70
2019-04-16T03:24:15.146Z,47.80
2019-04-16T03:29:06.046Z,48.00
2019-04-16T03:33:56.947Z,48.60
2019-04-16T03:38:47.864Z,49.00
2019-04-16T03:43:38.814Z,49.20
2019-04-16T03:48:29.718Z,49.60
2019-04-16T03:53:20.654Z,49.90
2019-04-16T03:58:11.559Z,48.80
2019-04-16T04:03:02.502Z,48.00
2019-04-16T04:07:55.210Z,48.00
2019-04-16T04:12:45.666Z,48.20
2019-04-16T04:17:35.708Z,48.90
2019-04-16T04:22:26.652Z,49.20
2019-04-16T04:27:19.297Z,49.40
2019-04-16T04:32:08.083Z,49.80
2019-04-16T04:36:59.703Z,49.90
2019-04-16T04:41:52.692Z,50.20
2019-04-16T04:46:43.191Z,48.30
2019-04-16T04:51:32.573Z,48.30
2019-04-16T04:56:27.771Z,48.50
2019-04-16T05:01:14.410Z,48.80
2019-04-16T05:06:06.250Z,49.10
2019-04-16T05:10:59.905Z,49.60
2019-04-16T05:15:48.076Z,49.90
2019-04-16T05:20:39.722Z,50.90
2019-04-16T05:25:34.187Z,50.70
2019-04-16T05:30:22.142Z,51.20
2019-04-16T05:35:12.594Z,50.10
2019-04-16T05:40:03.534Z,49.20
2019-04-16T05:44:54.427Z,49.30
2019-04-16T05:49:45.350Z,49.90
2019-04-16T05:54:36.254Z,50.50
2019-04-16T05:59:27.143Z,51.00
2019-04-16T06:04:18.048Z,51.20
2019-04-16T06:09:11.909Z,51.70
2019-04-16T06:13:59.878Z,52.00
2019-04-16T06:18:52.666Z,52.10
2019-04-16T06:23:44.307Z,50.50
2019-04-16T06:28:45.199Z,50.50
2019-04-16T06:33:37.994Z,50.50
2019-04-16T06:38:28.954Z,50.90
2019-04-16T06:43:25.332Z,51.50
2019-04-16T06:48:13.203Z,51.50
2019-04-16T06:53:02.494Z,51.60
2019-04-16T06:57:59.604Z,51.70
2019-04-16T07:03:02.225Z,51.80
2019-04-16T07:12:54.861Z,51.20
2019-04-16T07:17:45.856Z,50.30
2019-04-16T07:22:37.063Z,50.50
2019-04-16T07:27:28.048Z,50.70
2019-04-16T07:32:20.739Z,50.80
2019-04-16T07:37:11.572Z,50.80
2019-04-16T07:42:11.965Z,51.00
2019-04-16T07:47:05.462Z,51.20
2019-04-16T07:52:06.976Z,51.40
2019-04-16T07:56:54.157Z,49.30
2019-04-16T08:01:47.743Z,49.30
2019-04-16T08:06:37.067Z,50.00
2019-04-16T08:11:27.974Z,49.90
2019-04-16T08:16:19.110Z,50.00
2019-04-16T08:21:12.491Z,50.60
2019-04-16T08:26:04.312Z,50.50
2019-04-16T08:30:52.989Z,50.60
2019-04-16T08:35:43.918Z,50.10
2019-04-16T08:40:34.924Z,47.80
2019-04-16T08:45:25.870Z,48.00
2019-04-16T08:50:16.887Z,48.10
2019-04-16T08:55:08.106Z,48.40
2019-04-16T08:59:59.244Z,48.50
2019-04-16T09:04:50.863Z,47.80
2019-04-16T09:09:43.298Z,47.50
2019-04-16T09:14:34.220Z,47.40
2019-04-16T09:19:25.158Z,47.00
2019-04-16T09:24:19.085Z,47.30
2019-04-16T09:29:11.925Z,47.20
2019-04-16T09:34:06.455Z,46.50
2019-04-16T09:38:54.744Z,46.60
2019-04-16T09:43:45.670Z,46.20
2019-04-16T09:48:36.569Z,45.60
2019-04-16T09:53:34.087Z,45.30
2019-04-16T09:58:21.534Z,44.20
2019-04-16T10:03:10.467Z,44.80
2019-04-16T10:08:01.371Z,45.80
2019-04-16T10:12:52.315Z,44.60
2019-04-16T10:17:43.214Z,44.20
2019-04-16T10:22:34.118Z,42.40
2019-04-16T10:27:31.294Z,43.30
2019-04-16T10:32:18.685Z,42.20
2019-04-16T10:37:08.919Z,43.50
2019-04-16T10:42:00.829Z,43.50
2019-04-16T10:46:53.261Z,43.40
2019-04-16T10:51:50.458Z,43.30
2019-04-16T10:56:45.319Z,43.00
2019-04-16T11:01:38.276Z,43.40
2019-04-16T11:06:32.117Z,44.10
2019-04-16T11:11:23.099Z,44.30
2019-04-16T11:16:14.059Z,44.60
2019-04-16T11:21:04.987Z,44.70
2019-04-16T11:25:56.619Z,42.50
2019-04-16T11:30:48.926Z,42.80
2019-04-16T11:35:39.182Z,42.70
2019-04-16T11:40:30.845Z,42.70
2019-04-16T11:45:21.746Z,42.70
2019-04-16T11:50:13.414Z,41.50
2019-04-16T11:55:04.210Z,42.40
2019-04-16T12:00:06.565Z,41.80
2019-04-16T12:04:47.103Z,41.30
2019-04-16T12:09:40.900Z,41.20
2019-04-16T12:14:34.849Z,40.70
2019-04-16T12:24:52.984Z,40.10
2019-04-16T12:29:43.895Z,40.20
2019-04-16T12:34:36.831Z,39.90
2019-04-16T12:39:29.782Z,39.40
2019-04-16T12:44:23.933Z,39.10
2019-04-16T12:49:15.534Z,39.90
2019-04-16T12:59:44.158Z,38.10
2019-04-16T13:09:58.511Z,38.10
2019-04-16T13:15:00.498Z,38.10
2019-04-16T13:19:46.298Z,37.20
2019-04-16T13:24:37.946Z,36.00
2019-04-16T13:29:30.565Z,36.80
2019-04-16T13:34:20.511Z,36.80
2019-04-16T13:39:12.291Z,37.30
2019-04-16T13:44:07.977Z,36.70
2019-04-16T13:49:00.735Z,36.70
2019-04-16T13:53:50.722Z,36.20
2019-04-16T13:58:42.365Z,35.70
2019-04-16T14:03:34.007Z,35.30
2019-04-16T14:08:24.912Z,35.30
2019-04-16T14:13:16.562Z,35.40
2019-04-16T14:18:07.450Z,35.30
2019-04-16T14:22:58.418Z,35.70
2019-04-16T14:27:49.279Z,36.60
2019-04-16T14:32:40.188Z,37.70
2019-04-16T14:37:31.083Z,37.20
2019-04-16T14:42:23.026Z,37.00
2019-04-16T14:47:12.930Z,37.10
2019-04-16T14:52:03.865Z,37.80
2019-04-16T14:56:56.753Z,37.30
2019-04-16T15:01:53.723Z,36.70
2019-04-16T15:06:45.352Z,37.40
2019-04-16T15:16:56.843Z,37.60
2019-04-16T15:21:48.742Z,37.80
2019-04-16T15:26:44.227Z,35.80
2019-04-16T15:31:40.107Z,35.90
2019-04-16T15:36:31.738Z,37.00
2019-04-16T15:46:53.563Z,37.20
2019-04-16T15:52:02.697Z,36.30
2019-04-16T15:56:58.559Z,35.80
2019-04-16T16:01:55.636Z,35.10
2019-04-16T16:06:51.785Z,35.20
2019-04-16T16:11:39.495Z,35.80
2019-04-16T16:16:41.442Z,36.40
2019-04-16T16:21:21.338Z,36.30
2019-04-16T16:26:12.254Z,35.70
2019-04-16T16:31:03.378Z,35.50
2019-04-16T16:35:58.847Z,36.10
2019-04-16T16:40:49.474Z,35.90
2019-04-16T16:45:37.886Z,36.10
2019-04-16T16:50:28.796Z,36.30
2019-04-16T16:55:19.709Z,35.10
2019-04-16T17:00:16.818Z,35.60
2019-04-16T17:05:11.546Z,36.40
2019-04-16T17:10:02.449Z,36.40
2019-04-16T17:14:54.091Z,36.90
2019-04-16T17:19:45.061Z,36.90
2019-04-16T17:24:36.790Z,36.70
2019-04-16T17:29:27.682Z,36.70
2019-04-16T17:34:18.630Z,37.30
2019-04-16T17:39:10.747Z,37.60
2019-04-16T17:44:04.452Z,37.90
2019-04-16T17:49:05.382Z,37.90
2019-04-16T17:53:58.211Z,37.10
2019-04-16T17:58:54.966Z,38.10
2019-04-16T18:03:50.718Z,38.10
2019-04-16T18:08:58.352Z,38.60
2019-04-16T18:14:04.372Z,38.60
2019-04-16T18:18:50.173Z,38.70
2019-04-16T18:23:42.599Z,38.10
2019-04-16T18:28:34.554Z,38.10
2019-04-16T18:38:50.274Z,38.90
2019-04-16T18:43:47.239Z,39.00
2019-04-16T18:48:39.067Z,39.40
2019-04-16T18:53:29.980Z,38.40
2019-04-16T18:58:20.880Z,38.50
2019-04-16T19:03:14.860Z,39.00
2019-04-16T19:08:02.739Z,39.20
2019-04-16T19:12:53.677Z,39.60
2019-04-16T19:17:44.560Z,39.90
2019-04-16T19:22:35.634Z,38.90
2019-04-16T19:27:27.896Z,38.80
2019-04-16T19:32:17.461Z,39.20
2019-04-16T19:37:08.379Z,39.50
2019-04-16T19:41:59.274Z,39.70
2019-04-16T19:46:52.604Z,40.20
2019-04-16T19:51:41.983Z,39.80
2019-04-16T19:56:33.591Z,39.20
2019-04-16T20:01:22.950Z,39.50
2019-04-16T20:06:13.848Z,39.60
2019-04-16T20:11:04.743Z,39.90
2019-04-16T20:15:59.408Z,40.40
2019-04-16T20:20:50.148Z,40.40
2019-04-16T20:25:38.246Z,39.50
2019-04-16T20:30:29.159Z,39.30
2019-04-16T20:35:20.075Z,39.60
2019-04-16T20:40:10.986Z,39.90
2019-04-16T20:45:01.882Z,39.90
2019-04-16T20:49:53.531Z,40.70
2019-04-16T20:54:45.187Z,39.60
2019-04-16T20:59:39.221Z,39.60
2019-04-16T21:04:27.098Z,39.50
2019-04-16T21:09:18.738Z,40.00
2019-04-16T21:14:10.383Z,40.30
2019-04-16T21:19:01.607Z,40.30
2019-04-16T21:23:52.217Z,40.50
2019-04-16T21:28:43.860Z,39.90
2019-04-16T21:33:36.629Z,39.90
2019-04-16T21:38:27.533Z,39.70
2019-04-16T21:43:18.435Z,40.00
2019-04-16T21:48:12.243Z,40.20
2019-04-16T21:53:00.385Z,40.50
2019-04-16T21:57:52.051Z,40.50
2019-04-16T22:02:43.072Z,40.50
2019-04-16T22:07:33.974Z,39.70
2019-04-16T22:12:24.898Z,39.50
2019-04-16T22:17:15.795Z,39.80
2019-04-16T22:22:07.430Z,41.60
2019-04-16T22:26:59.074Z,41.90
2019-04-16T22:31:56.145Z,41.80
2019-04-16T22:36:41.038Z,42.00
2019-04-16T22:41:38.215Z,39.90
2019-04-16T22:46:29.167Z,39.70
2019-04-16T22:51:20.066Z,41.00
2019-04-16T22:56:10.975Z,41.30
2019-04-16T23:01:01.866Z,41.70
2019-04-16T23:05:52.770Z,42.00
2019-04-16T23:10:43.781Z,42.40
2019-04-16T23:15:34.679Z,41.60
2019-04-16T23:20:29.618Z,40.90
2019-04-16T23:25:16.514Z,41.00
2019-04-16T23:30:07.438Z,42.20
2019-04-16T23:34:58.346Z,41.70
2019-04-16T23:39:49.247Z,42.20
2019-04-16T23:44:58.873Z,42.50
2019-04-16T23:49:48.544Z,41.30
